createdAt,value
2018-03-12T00:00:58.705Z,20.55
2018-03-12T00:02:03.918Z,20.25
2018-03-12T00:03:09.162Z,19.80
2018-03-12T00:04:13.621Z,21.30
2018-03-12T00:05:18.095Z,19.50
2018-03-12T00:06:22.541Z,20.62
2018-03-12T00:07:26.998Z,19.77
2018-03-12T00:08:32.230Z,19.30
2018-03-12T00:09:37.591Z,20.02
2018-03-12T00:10:42.126Z,20.45
2018-03-12T00:11:46.581Z,20.33
2018-03-12T00:12:51.798Z,19.37
2018-03-12T00:13:57.036Z,20.73
2018-03-12T00:15:02.255Z,20.00
2018-03-12T00:16:06.737Z,20.40
2018-03-12T00:17:11.186Z,20.88
2018-03-12T00:18:16.398Z,18.42
2018-03-12T00:19:20.904Z,20.05
2018-03-12T00:20:25.354Z,21.10
2018-03-12T00:21:29.798Z,21.27
2018-03-12T00:22:35.441Z,20.08
2018-03-12T00:23:39.900Z,20.23
2018-03-12T00:24:45.143Z,20.95
2018-03-12T00:25:50.360Z,20.37
2018-03-12T00:26:55.578Z,20.65
2018-03-12T00:28:00.800Z,20.75
2018-03-12T00:29:06.764Z,21.70
2018-03-12T00:30:11.997Z,20.48
2018-03-12T00:31:17.210Z,20.62
2018-03-12T00:32:21.663Z,21.10
2018-03-12T00:33:26.118Z,20.05
2018-03-12T00:34:30.610Z,20.02
2018-03-12T00:35:35.226Z,21.95
2018-03-12T00:36:39.806Z,22.40
2018-03-12T00:37:44.265Z,21.12
2018-03-12T00:38:48.717Z,20.77
2018-03-12T00:39:53.175Z,20.67
2018-03-12T00:40:57.641Z,22.35
2018-03-12T00:42:02.090Z,20.52
2018-03-12T00:43:06.546Z,21.60
2018-03-12T00:44:11.770Z,21.92
2018-03-12T00:45:17.077Z,22.48
2018-03-12T00:46:21.542Z,22.35
2018-03-12T00:47:25.997Z,22.85
2018-03-12T00:48:30.445Z,22.30
2018-03-12T00:49:35.672Z,22.98
2018-03-12T00:50:40.900Z,22.83
2018-03-12T00:51:46.134Z,22.67
2018-03-12T00:52:51.356Z,22.95
2018-03-12T00:53:56.573Z,23.02
2018-03-12T00:55:01.021Z,22.67
2018-03-12T00:56:05.137Z,23.80
2018-03-12T00:57:09.620Z,21.65
2018-03-12T00:58:14.837Z,24.20
2018-03-12T00:59:20.086Z,23.27
2018-03-12T01:00:25.296Z,24.35
2018-03-12T01:01:30.514Z,22.17
2018-03-12T01:02:34.990Z,22.37
2018-03-12T01:03:39.447Z,23.45
2018-03-12T01:04:44.666Z,22.75
2018-03-12T01:05:49.123Z,23.65
2018-03-12T01:06:53.567Z,23.12
2018-03-12T01:07:58.038Z,24.42
2018-03-12T01:09:07.968Z,24.30
2018-03-12T01:10:12.414Z,23.65
2018-03-12T01:11:16.861Z,22.42
2018-03-12T01:12:21.313Z,23.27
2018-03-12T01:13:25.793Z,22.60
2018-03-12T01:14:31.014Z,21.37
2018-03-12T01:15:35.495Z,20.92
2018-03-12T01:16:39.929Z,21.80
2018-03-12T01:17:44.398Z,20.85
2018-03-12T01:18:48.883Z,20.27
2018-03-12T01:19:54.106Z,20.92
2018-03-12T01:20:59.322Z,20.33
2018-03-12T01:22:04.545Z,21.30
2018-03-12T01:23:09.051Z,19.73
2018-03-12T01:24:13.661Z,20.83
2018-03-12T01:25:18.114Z,21.67
2018-03-12T01:26:22.578Z,21.25
2018-03-12T01:27:27.041Z,20.85
2018-03-12T01:28:31.506Z,20.08
2018-03-12T01:29:35.965Z,22.65
2018-03-12T01:30:40.428Z,21.45
2018-03-12T01:31:45.649Z,20.23
2018-03-12T01:32:50.102Z,20.05
2018-03-12T01:33:55.313Z,19.70
2018-03-12T01:35:00.562Z,20.95
2018-03-12T01:36:05.798Z,24.00
2018-03-12T01:37:10.253Z,20.52
2018-03-12T01:38:15.628Z,20.65
2018-03-12T01:39:20.850Z,20.70
2018-03-12T01:40:26.106Z,20.27
2018-03-12T01:41:30.558Z,21.33
2018-03-12T01:42:35.012Z,20.35
2018-03-12T01:43:40.223Z,21.20
2018-03-12T01:44:44.769Z,22.08
2018-03-12T01:45:49.453Z,22.10
2018-03-12T01:46:53.893Z,21.77
2018-03-12T01:47:58.346Z,22.80
2018-03-12T01:49:02.804Z,23.17
2018-03-12T01:50:08.016Z,21.00
2018-03-12T01:51:12.497Z,21.92
2018-03-12T01:52:16.947Z,19.20
2018-03-12T01:53:22.169Z,20.60
2018-03-12T01:54:27.379Z,21.70
2018-03-12T01:55:31.838Z,20.42
2018-03-12T01:56:36.301Z,20.10
2018-03-12T01:57:40.755Z,21.52
2018-03-12T01:58:45.202Z,21.83
2018-03-12T01:59:49.666Z,19.75
2018-03-12T02:00:55.363Z,20.40
2018-03-12T02:01:59.843Z,22.48
2018-03-12T02:03:03.968Z,22.70
2018-03-12T02:04:08.413Z,22.85
2018-03-12T02:05:12.881Z,20.70
2018-03-12T02:06:17.326Z,20.77
2018-03-12T02:07:21.801Z,20.85
2018-03-12T02:08:26.317Z,21.25
2018-03-12T02:09:30.782Z,23.05
2018-03-12T02:10:35.986Z,21.92
2018-03-12T02:11:40.434Z,21.65
2018-03-12T02:12:45.672Z,22.83
2018-03-12T02:13:50.132Z,22.58
2018-03-12T02:14:54.581Z,23.17
2018-03-12T02:15:59.151Z,23.15
2018-03-12T02:17:03.601Z,21.27
2018-03-12T02:18:09.424Z,22.25
2018-03-12T02:19:13.874Z,21.60
2018-03-12T02:20:18.354Z,21.92
2018-03-12T02:21:23.867Z,22.25
2018-03-12T02:22:28.325Z,22.30
2018-03-12T02:23:32.794Z,22.92
2018-03-12T02:24:37.266Z,21.62
2018-03-12T02:25:41.711Z,22.95
2018-03-12T02:26:46.175Z,21.85
2018-03-12T02:27:50.642Z,22.40
2018-03-12T02:28:55.109Z,21.73
2018-03-12T02:29:59.565Z,22.77
2018-03-12T02:31:04.018Z,23.12
2018-03-12T02:32:08.471Z,22.95
2018-03-12T02:33:12.917Z,22.15
2018-03-12T02:34:18.207Z,23.17
2018-03-12T02:35:22.658Z,22.25
2018-03-12T02:36:27.730Z,21.25
2018-03-12T02:37:32.177Z,18.67
2018-03-12T02:38:37.401Z,20.25
2018-03-12T02:39:41.874Z,19.00
2018-03-12T02:40:46.336Z,19.25
2018-03-12T02:41:50.785Z,19.23
2018-03-12T02:42:55.249Z,19.27
2018-03-12T02:43:59.510Z,19.05
2018-03-12T02:45:03.987Z,19.15
2018-03-12T02:46:09.210Z,18.60
2018-03-12T02:47:14.435Z,20.15
2018-03-12T02:48:19.656Z,20.83
2018-03-12T02:49:24.109Z,21.70
2018-03-12T02:50:28.653Z,18.77
2018-03-12T02:51:33.102Z,20.17
2018-03-12T02:52:38.327Z,19.65
2018-03-12T02:53:42.774Z,20.00
2018-03-12T02:54:47.221Z,20.17
2018-03-12T02:55:51.695Z,19.83
2018-03-12T02:56:56.151Z,20.02
2018-03-12T02:58:00.601Z,21.40
2018-03-12T02:59:05.817Z,21.37
2018-03-12T03:00:11.043Z,20.73
2018-03-12T03:01:16.088Z,20.15
2018-03-12T03:02:20.331Z,19.85
2018-03-12T03:03:24.786Z,22.10
2018-03-12T03:04:29.671Z,20.75
2018-03-12T03:05:34.133Z,20.00
2018-03-12T03:06:39.366Z,21.95
2018-03-12T03:07:43.811Z,21.42
2018-03-12T03:08:48.060Z,21.50
2018-03-12T03:09:53.275Z,20.85
2018-03-12T03:10:58.494Z,20.35
2018-03-12T03:12:02.978Z,20.23
2018-03-12T03:13:07.093Z,20.50
2018-03-12T03:14:11.543Z,19.42
2018-03-12T03:15:16.765Z,21.27
2018-03-12T03:16:21.213Z,21.83
2018-03-12T03:17:25.718Z,20.70
2018-03-12T03:18:30.938Z,21.20
2018-03-12T03:19:36.151Z,21.60
2018-03-12T03:20:41.381Z,21.05
2018-03-12T03:21:46.622Z,20.77
2018-03-12T03:22:51.863Z,22.17
2018-03-12T03:23:56.138Z,20.85
2018-03-12T03:25:00.417Z,21.80
2018-03-12T03:26:05.011Z,21.05
2018-03-12T03:27:09.476Z,22.17
2018-03-12T03:28:14.525Z,22.83
2018-03-12T03:29:19.753Z,21.48
2018-03-12T03:30:30.534Z,23.05
2018-03-12T03:31:34.995Z,22.87
2018-03-12T03:32:39.435Z,22.30
2018-03-12T03:33:43.930Z,22.50
2018-03-12T03:34:48.373Z,22.23
2018-03-12T03:35:52.846Z,22.30
2018-03-12T03:36:57.293Z,22.17
2018-03-12T03:38:01.776Z,22.15
2018-03-12T03:39:07.024Z,22.52
2018-03-12T03:40:11.492Z,22.45
2018-03-12T03:41:15.934Z,22.98
2018-03-12T03:42:21.146Z,22.85
2018-03-12T03:43:25.610Z,22.48
2018-03-12T03:44:30.082Z,22.85
2018-03-12T03:45:35.302Z,21.92
2018-03-12T03:46:40.510Z,21.55
2018-03-12T03:47:44.973Z,21.25
2018-03-12T03:48:49.433Z,23.05
2018-03-12T03:49:53.905Z,22.52
2018-03-12T03:50:58.345Z,22.80
2018-03-12T03:52:02.802Z,24.55
2018-03-12T03:53:08.058Z,22.55
2018-03-12T03:54:12.502Z,23.48
2018-03-12T03:55:16.980Z,22.62
2018-03-12T03:56:21.429Z,22.20
2018-03-12T03:57:26.649Z,23.17
2018-03-12T03:58:31.093Z,23.05
2018-03-12T03:59:36.322Z,23.33
2018-03-12T04:00:41.558Z,23.02
2018-03-12T04:01:46.769Z,21.40
2018-03-12T04:02:51.993Z,23.25
2018-03-12T04:03:57.217Z,21.10
2018-03-12T04:05:03.179Z,21.98
2018-03-12T04:06:07.660Z,20.37
2018-03-12T04:07:12.107Z,19.92
2018-03-12T04:08:17.322Z,20.23
2018-03-12T04:09:21.775Z,19.23
2018-03-12T04:10:26.225Z,20.15
2018-03-12T04:11:30.696Z,19.70
2018-03-12T04:12:35.160Z,20.25
2018-03-12T04:13:39.609Z,19.70
2018-03-12T04:14:44.071Z,19.05
2018-03-12T04:15:48.192Z,18.75
2018-03-12T04:16:52.684Z,18.90
2018-03-12T04:17:57.122Z,20.50
2018-03-12T04:19:02.351Z,20.35
2018-03-12T04:20:07.570Z,20.30
2018-03-12T04:21:12.025Z,19.50
2018-03-12T04:22:16.507Z,21.75
2018-03-12T04:23:21.730Z,20.50
2018-03-12T04:24:26.949Z,19.67
2018-03-12T04:25:31.402Z,19.25
2018-03-12T04:26:35.856Z,21.10
2018-03-12T04:27:40.322Z,21.00
2018-03-12T04:28:44.790Z,20.25
2018-03-12T04:29:49.229Z,19.73
2018-03-12T04:30:54.441Z,20.20
2018-03-12T04:31:59.660Z,19.33
2018-03-12T04:33:04.147Z,19.67
2018-03-12T04:34:08.625Z,19.08
2018-03-12T04:35:13.080Z,19.02
2018-03-12T04:36:17.521Z,20.35
2018-03-12T04:37:22.743Z,19.08
2018-03-12T04:38:27.997Z,19.10
2018-03-12T04:39:32.459Z,20.58
2018-03-12T04:40:36.913Z,19.92
2018-03-12T04:41:42.129Z,18.50
2018-03-12T04:42:47.346Z,17.65
2018-03-12T04:43:51.832Z,18.30
2018-03-12T04:44:56.450Z,17.27
2018-03-12T04:46:00.723Z,15.90
2018-03-12T04:47:05.187Z,16.42
2018-03-12T04:48:09.647Z,16.80
2018-03-12T04:49:14.113Z,16.17
2018-03-12T04:50:19.329Z,16.30
2018-03-12T04:51:23.782Z,17.70
2018-03-12T04:52:28.238Z,16.25
2018-03-12T04:53:32.690Z,18.23
2018-03-12T04:54:38.102Z,17.12
2018-03-12T04:55:42.571Z,16.12
2018-03-12T04:56:47.025Z,16.55
2018-03-12T04:57:51.489Z,16.75
2018-03-12T04:58:55.949Z,16.23
2018-03-12T05:00:00.441Z,17.15
2018-03-12T05:01:04.901Z,17.08
2018-03-12T05:02:09.350Z,16.30
2018-03-12T05:03:13.806Z,17.25
2018-03-12T05:04:19.017Z,17.25
2018-03-12T05:05:23.504Z,17.62
2018-03-12T05:06:27.950Z,17.77
2018-03-12T05:07:33.173Z,16.55
2018-03-12T05:08:38.405Z,17.65
2018-03-12T05:09:42.867Z,18.30
2018-03-12T05:10:47.340Z,18.05
2018-03-12T05:11:52.563Z,17.42
2018-03-12T05:12:57.790Z,17.65
2018-03-12T05:14:02.257Z,18.00
2018-03-12T05:15:06.701Z,18.27
2018-03-12T05:16:12.689Z,19.02
2018-03-12T05:17:17.161Z,17.62
2018-03-12T05:18:21.635Z,18.60
2018-03-12T05:19:26.101Z,19.05
2018-03-12T05:20:31.394Z,20.48
2018-03-12T05:21:35.867Z,20.00
2018-03-12T05:22:40.340Z,18.95
2018-03-12T05:23:44.791Z,20.10
2018-03-12T05:24:49.246Z,19.05
2018-03-12T05:25:53.682Z,18.08
2018-03-12T05:26:58.926Z,20.35
2018-03-12T05:28:03.815Z,18.40
2018-03-12T05:29:08.245Z,18.75
2018-03-12T05:30:13.487Z,19.62
2018-03-12T05:31:18.807Z,18.50
2018-03-12T05:32:23.308Z,18.85
2018-03-12T05:33:27.748Z,20.05
2018-03-12T05:34:32.212Z,19.15
2018-03-12T05:35:36.714Z,19.48
2018-03-12T05:36:42.134Z,18.75
2018-03-12T05:37:46.618Z,19.52
2018-03-12T05:38:51.068Z,19.15
2018-03-12T05:39:55.528Z,18.60
2018-03-12T05:41:00.749Z,17.15
2018-03-12T05:42:05.962Z,18.30
2018-03-12T05:43:10.442Z,16.67
2018-03-12T05:44:14.910Z,17.95
2018-03-12T05:45:19.391Z,16.80
2018-03-12T05:46:23.833Z,16.85
2018-03-12T05:47:28.288Z,17.00
2018-03-12T05:48:32.760Z,18.20
2018-03-12T05:49:37.219Z,16.92
2018-03-12T05:50:41.673Z,17.73
2018-03-12T05:51:46.912Z,16.23
2018-03-12T05:52:52.122Z,16.60
2018-03-12T05:53:57.446Z,15.95
2018-03-12T05:55:01.922Z,18.08
2018-03-12T05:56:06.472Z,17.33
2018-03-12T05:57:11.270Z,17.08
2018-03-12T05:58:15.780Z,18.37
2018-03-12T05:59:20.255Z,16.10
2018-03-12T06:00:24.714Z,18.23
2018-03-12T06:01:30.671Z,17.73
2018-03-12T06:02:35.162Z,16.92
2018-03-12T06:03:39.610Z,16.90
2018-03-12T06:04:45.172Z,16.60
2018-03-12T06:05:49.622Z,15.75
2018-03-12T06:06:54.069Z,16.12
2018-03-12T06:07:59.326Z,16.95
2018-03-12T06:09:03.257Z,17.67
2018-03-12T06:10:07.750Z,16.75
2018-03-12T06:11:12.206Z,17.92
2018-03-12T06:12:17.438Z,17.10
2018-03-12T06:13:22.666Z,16.52
2018-03-12T06:14:27.895Z,16.33
2018-03-12T06:15:33.458Z,16.65
2018-03-12T06:16:37.926Z,16.30
2018-03-12T06:17:42.434Z,16.58
2018-03-12T06:18:46.886Z,16.87
2018-03-12T06:19:51.353Z,16.55
2018-03-12T06:20:55.826Z,16.50
2018-03-12T06:22:00.287Z,16.33
2018-03-12T06:23:04.746Z,17.42
2018-03-12T06:24:09.207Z,17.87
2018-03-12T06:25:14.016Z,16.25
2018-03-12T06:26:18.510Z,17.70
2018-03-12T06:27:22.969Z,15.98
2018-03-12T06:28:28.194Z,16.48
2018-03-12T06:29:33.424Z,16.70
2018-03-12T06:30:38.638Z,16.40
2018-03-12T06:31:43.133Z,16.25
2018-03-12T06:32:47.600Z,17.10
2018-03-12T06:33:52.157Z,15.15
2018-03-12T06:34:56.687Z,15.68
2018-03-12T06:36:01.412Z,16.35
2018-03-12T06:37:06.005Z,16.00
2018-03-12T06:38:10.531Z,16.40
2018-03-12T06:39:15.097Z,16.40
2018-03-12T06:40:19.650Z,15.73
2018-03-12T06:41:24.602Z,17.02
2018-03-12T06:42:29.935Z,15.90
2018-03-12T06:43:35.207Z,15.32
2018-03-12T06:44:39.699Z,16.73
2018-03-12T06:45:44.227Z,16.62
2018-03-12T06:46:48.677Z,16.15
2018-03-12T06:47:53.181Z,15.75
2018-03-12T06:48:57.689Z,16.42
2018-03-12T06:50:02.325Z,18.50
2018-03-12T06:51:07.564Z,17.33
2018-03-12T06:52:12.050Z,16.35
2018-03-12T06:53:16.509Z,17.30
2018-03-12T06:54:20.970Z,17.77
2018-03-12T06:55:25.438Z,16.60
2018-03-12T06:56:29.992Z,16.67
2018-03-12T06:57:34.428Z,17.48
2018-03-12T06:58:39.677Z,16.85
2018-03-12T06:59:44.142Z,17.98
2018-03-12T07:00:48.598Z,16.15
2018-03-12T07:01:53.044Z,17.23
2018-03-12T07:02:57.493Z,16.65
2018-03-12T07:04:01.979Z,17.50
2018-03-12T07:05:06.426Z,21.92
2018-03-12T07:06:11.650Z,17.95
2018-03-12T07:07:16.896Z,17.10
2018-03-12T07:08:22.114Z,17.95
2018-03-12T07:09:28.542Z,16.83
2018-03-12T07:10:34.597Z,17.50
2018-03-12T07:11:39.302Z,18.60
2018-03-12T07:12:43.822Z,17.95
2018-03-12T07:13:48.275Z,16.80
2018-03-12T07:14:52.762Z,17.58
2018-03-12T07:15:57.980Z,17.73
2018-03-12T07:17:02.434Z,16.65
2018-03-12T07:18:06.894Z,17.50
2018-03-12T07:19:11.353Z,17.23
2018-03-12T07:20:16.582Z,18.73
2018-03-12T07:21:21.094Z,17.60
2018-03-12T07:22:25.554Z,17.08
2018-03-12T07:23:30.010Z,16.60
2018-03-12T07:24:35.234Z,18.05
2018-03-12T07:25:40.482Z,17.33
2018-03-12T07:26:45.022Z,16.45
2018-03-12T07:27:49.473Z,16.10
2018-03-12T07:28:54.722Z,17.55
2018-03-12T07:29:59.206Z,16.10
2018-03-12T07:31:03.683Z,18.65
2018-03-12T07:32:08.125Z,16.65
2018-03-12T07:33:12.582Z,17.20
2018-03-12T07:34:17.049Z,16.55
2018-03-12T07:35:21.601Z,17.35
2018-03-12T07:36:26.081Z,18.62
2018-03-12T07:37:30.579Z,16.92
2018-03-12T07:38:38.770Z,16.15
2018-03-12T07:39:44.119Z,15.95
2018-03-12T07:40:48.571Z,18.73
2018-03-12T07:41:53.053Z,17.08
2018-03-12T07:42:58.271Z,16.83
2018-03-12T07:44:02.748Z,17.08
2018-03-12T07:45:07.206Z,16.75
2018-03-12T07:46:12.438Z,16.73
2018-03-12T07:47:17.686Z,16.25
2018-03-12T07:48:22.147Z,16.55
2018-03-12T07:49:26.869Z,15.27
2018-03-12T07:50:31.328Z,16.48
2018-03-12T07:51:35.785Z,16.98
2018-03-12T07:52:40.266Z,15.85
2018-03-12T07:53:44.722Z,15.63
2018-03-12T07:54:49.170Z,17.25
2018-03-12T07:55:53.633Z,16.85
2018-03-12T07:56:58.141Z,16.58
2018-03-12T07:58:02.621Z,16.55
2018-03-12T07:59:07.077Z,16.98
2018-03-12T08:00:11.522Z,16.83
2018-03-12T08:01:16.022Z,16.40
2018-03-12T08:02:20.634Z,17.20
2018-03-12T08:03:25.882Z,17.33
2018-03-12T08:04:30.337Z,17.20
2018-03-12T08:05:34.803Z,16.02
2018-03-12T08:06:39.825Z,17.00
2018-03-12T08:07:44.290Z,17.95
2018-03-12T08:08:48.772Z,17.40
2018-03-12T08:09:53.218Z,17.17
2018-03-12T08:10:57.683Z,17.80
2018-03-12T08:12:02.143Z,16.05
2018-03-12T08:13:06.589Z,16.70
2018-03-12T08:14:11.061Z,17.27
2018-03-12T08:15:15.526Z,15.55
2018-03-12T08:16:20.008Z,15.65
2018-03-12T08:17:24.635Z,16.62
2018-03-12T08:18:29.859Z,16.60
2018-03-12T08:19:35.097Z,15.15
2018-03-12T08:20:39.553Z,16.98
2018-03-12T08:21:44.002Z,16.17
2018-03-12T08:22:49.221Z,13.62
2018-03-12T08:23:53.679Z,14.68
2018-03-12T08:24:58.166Z,15.80
2018-03-12T08:26:02.626Z,16.27
2018-03-12T08:27:07.080Z,15.45
2018-03-12T08:28:12.304Z,16.30
2018-03-12T08:29:17.579Z,15.05
2018-03-12T08:30:22.069Z,16.10
2018-03-12T08:31:27.303Z,15.10
2018-03-12T08:32:31.762Z,15.98
2018-03-12T08:33:36.997Z,16.05
2018-03-12T08:34:41.458Z,16.15
2018-03-12T08:35:45.929Z,16.10
2018-03-12T08:36:51.155Z,16.87
2018-03-12T08:37:55.611Z,15.85
2018-03-12T08:39:00.082Z,16.75
2018-03-12T08:40:03.875Z,15.02
2018-03-12T08:41:09.146Z,17.25
2018-03-12T08:42:13.597Z,15.88
2018-03-12T08:43:18.060Z,15.48
2018-03-12T08:44:22.505Z,15.40
2018-03-12T08:45:26.984Z,15.68
2018-03-12T08:46:31.461Z,15.10
2018-03-12T08:47:35.913Z,16.58
2018-03-12T08:48:40.372Z,16.35
2018-03-12T08:49:44.826Z,15.68
2018-03-12T08:50:49.302Z,16.15
2018-03-12T08:51:53.769Z,16.30
2018-03-12T08:52:58.041Z,16.35
2018-03-12T08:54:03.274Z,17.40
2018-03-12T08:55:07.753Z,16.60
2018-03-12T08:56:12.215Z,17.42
2018-03-12T08:57:16.789Z,17.25
2018-03-12T08:58:22.737Z,16.67
2018-03-12T08:59:27.958Z,15.50
2018-03-12T09:00:32.419Z,16.37
2018-03-12T09:01:36.869Z,15.75
2018-03-12T09:02:41.410Z,16.12
2018-03-12T09:03:46.010Z,16.08
2018-03-12T09:04:50.497Z,16.83
2018-03-12T09:05:54.950Z,17.37
2018-03-12T09:07:00.165Z,16.80
2018-03-12T09:08:05.426Z,17.73
2018-03-12T09:09:09.988Z,16.30
2018-03-12T09:10:14.426Z,18.70
2018-03-12T09:11:18.574Z,18.75
2018-03-12T09:12:23.043Z,16.67
2018-03-12T09:13:28.293Z,16.70
2018-03-12T09:14:32.751Z,18.12
2018-03-12T09:15:37.219Z,16.77
2018-03-12T09:16:41.667Z,18.10
2018-03-12T09:17:46.122Z,16.50
2018-03-12T09:18:51.359Z,18.10
2018-03-12T09:19:55.822Z,16.10
2018-03-12T09:21:00.344Z,15.27
2018-03-12T09:22:04.948Z,15.82
2018-03-12T09:23:09.397Z,15.60
2018-03-12T09:24:14.656Z,16.25
2018-03-12T09:25:19.110Z,14.15
2018-03-12T09:26:23.572Z,15.57
2018-03-12T09:27:28.036Z,15.25
2018-03-12T09:28:32.497Z,14.15
2018-03-12T09:29:36.983Z,14.55
2018-03-12T09:30:42.204Z,19.75
2018-03-12T09:31:47.429Z,15.20
2018-03-12T09:32:51.886Z,15.57
2018-03-12T09:33:56.354Z,14.95
2018-03-12T09:35:01.602Z,13.80
2018-03-12T09:36:06.829Z,14.35
2018-03-12T09:37:12.055Z,14.65
2018-03-12T09:38:17.282Z,13.93
2018-03-12T09:39:22.508Z,13.98
2018-03-12T09:40:27.758Z,13.38
2018-03-12T09:41:32.218Z,14.50
2018-03-12T09:42:36.681Z,14.32
2018-03-12T09:43:41.128Z,13.18
2018-03-12T09:44:45.581Z,13.57
2018-03-12T09:45:50.823Z,12.18
2018-03-12T09:46:55.280Z,13.18
2018-03-12T09:47:59.751Z,13.52
2018-03-12T09:49:04.223Z,12.70
2018-03-12T09:50:08.673Z,11.75
2018-03-12T09:51:13.158Z,11.55
2018-03-12T09:52:17.606Z,10.57
2018-03-12T09:53:22.056Z,11.88
2018-03-12T09:54:26.511Z,11.45
2018-03-12T09:55:31.731Z,10.95
2018-03-12T09:56:36.978Z,11.25
2018-03-12T09:57:41.436Z,11.25
2018-03-12T09:58:45.917Z,11.35
2018-03-12T09:59:50.182Z,11.82
2018-03-12T10:00:54.641Z,11.63
2018-03-12T10:01:59.138Z,11.05
2018-03-12T10:03:03.593Z,12.00
2018-03-12T10:04:08.049Z,12.05
2018-03-12T10:05:12.502Z,12.55
2018-03-12T10:06:16.953Z,11.77
2018-03-12T10:07:22.202Z,12.27
2018-03-12T10:08:26.664Z,13.05
2018-03-12T10:09:31.122Z,11.73
2018-03-12T10:10:35.583Z,12.65
2018-03-12T10:11:40.089Z,14.25
2018-03-12T10:12:44.582Z,12.70
2018-03-12T10:13:49.046Z,13.65
2018-03-12T10:14:54.269Z,11.60
2018-03-12T10:15:58.726Z,12.30
2018-03-12T10:17:03.194Z,12.20
2018-03-12T10:18:08.498Z,11.35
2018-03-12T10:19:13.114Z,10.07
2018-03-12T10:20:17.634Z,11.60
2018-03-12T10:21:22.082Z,10.23
2018-03-12T10:22:27.282Z,8.50
2018-03-12T10:23:31.807Z,9.55
2018-03-12T10:24:36.410Z,9.88
2018-03-12T10:25:41.617Z,9.15
2018-03-12T10:26:46.058Z,9.10
2018-03-12T10:27:50.518Z,10.38
2018-03-12T10:28:54.985Z,9.60
2018-03-12T10:29:59.426Z,8.82
2018-03-12T10:31:03.861Z,7.18
2018-03-12T10:32:08.391Z,7.43
2018-03-12T10:33:12.820Z,7.78
2018-03-12T10:34:17.294Z,6.50
2018-03-12T10:35:21.732Z,8.20
2018-03-12T10:36:26.182Z,8.45
2018-03-12T10:37:31.388Z,6.70
2018-03-12T10:38:35.817Z,7.68
2018-03-12T10:39:40.710Z,7.45
2018-03-12T10:40:45.207Z,6.62
2018-03-12T10:41:49.643Z,7.05
2018-03-12T10:42:54.128Z,7.40
2018-03-12T10:43:58.559Z,6.85
2018-03-12T10:45:03.025Z,6.60
2018-03-12T10:46:07.470Z,6.12
2018-03-12T10:47:11.902Z,6.50
2018-03-12T10:48:16.330Z,6.70
2018-03-12T10:49:21.537Z,6.47
2018-03-12T10:50:25.982Z,6.62
2018-03-12T10:51:30.496Z,6.37
2018-03-12T10:52:35.093Z,7.28
2018-03-12T10:53:40.293Z,5.80
2018-03-12T10:54:44.733Z,6.62
2018-03-12T10:55:49.961Z,6.15
2018-03-12T10:56:55.173Z,6.03
2018-03-12T10:57:59.612Z,5.82
2018-03-12T10:59:04.054Z,5.70
2018-03-12T11:00:08.319Z,5.85
2018-03-12T11:01:19.110Z,5.90
2018-03-12T11:02:27.883Z,7.20
2018-03-12T11:03:32.902Z,6.12
2018-03-12T11:04:37.925Z,6.18
2018-03-12T11:05:48.657Z,6.40
2018-03-12T11:06:58.673Z,6.90
2018-03-12T11:08:03.114Z,6.25
2018-03-12T11:09:07.558Z,6.20
2018-03-12T11:10:12.781Z,6.43
2018-03-12T11:11:17.989Z,6.07
2018-03-12T11:12:22.453Z,6.47
2018-03-12T11:13:26.881Z,7.15
2018-03-12T11:14:31.315Z,6.35
2018-03-12T11:15:35.761Z,5.47
2018-03-12T11:16:40.206Z,5.90
2018-03-12T11:17:45.101Z,5.62
2018-03-12T11:18:49.548Z,6.30
2018-03-12T11:19:54.012Z,6.15
2018-03-12T11:20:59.296Z,6.10
2018-03-12T11:22:03.720Z,5.80
2018-03-12T11:23:08.229Z,5.35
2018-03-12T11:24:12.660Z,5.80
2018-03-12T11:25:17.111Z,6.10
2018-03-12T11:26:21.538Z,6.40
2018-03-12T11:27:25.781Z,5.05
2018-03-12T11:28:30.247Z,4.90
2018-03-12T11:29:34.698Z,5.10
2018-03-12T11:30:39.145Z,4.00
2018-03-12T11:31:43.591Z,3.92
2018-03-12T11:32:48.047Z,3.95
2018-03-12T11:33:53.140Z,4.00
2018-03-12T11:34:57.578Z,3.37
2018-03-12T11:36:02.794Z,3.37
2018-03-12T11:37:07.239Z,3.70
2018-03-12T11:38:11.696Z,3.92
2018-03-12T11:39:16.153Z,3.40
2018-03-12T11:40:20.628Z,3.25
2018-03-12T11:41:25.071Z,3.37
2018-03-12T11:42:30.307Z,3.40
2018-03-12T11:43:35.506Z,3.30
2018-03-12T11:44:39.977Z,3.17
2018-03-12T11:45:44.456Z,2.58
2018-03-12T11:46:49.741Z,3.60
2018-03-12T11:47:54.194Z,3.83
2018-03-12T11:48:59.397Z,3.10
2018-03-12T11:50:03.535Z,3.10
2018-03-12T11:51:08.746Z,2.70
2018-03-12T11:52:13.261Z,2.60
2018-03-12T11:53:17.686Z,3.35
2018-03-12T11:54:22.157Z,2.90
2018-03-12T11:55:26.636Z,3.20
2018-03-12T11:56:31.082Z,3.20
2018-03-12T11:57:35.522Z,2.80
2018-03-12T11:58:40.730Z,2.30
2018-03-12T11:59:45.984Z,2.47
2018-03-12T12:00:50.635Z,2.62
2018-03-12T12:01:55.083Z,3.15
2018-03-12T12:02:59.555Z,2.50
2018-03-12T12:04:03.986Z,2.30
2018-03-12T12:05:08.433Z,2.20
2018-03-12T12:06:12.889Z,2.50
2018-03-12T12:07:17.329Z,2.40
2018-03-12T12:08:21.783Z,2.35
2018-03-12T12:09:26.231Z,1.80
2018-03-12T12:10:30.694Z,2.60
2018-03-12T12:11:35.957Z,2.30
2018-03-12T12:12:40.398Z,2.62
2018-03-12T12:13:44.880Z,3.40
2018-03-12T12:14:50.440Z,3.53
2018-03-12T12:15:54.879Z,3.58
2018-03-12T12:17:00.110Z,3.30
2018-03-12T12:18:04.999Z,3.83
2018-03-12T12:19:09.433Z,3.15
2018-03-12T12:20:13.879Z,4.20
2018-03-12T12:21:18.362Z,5.03
2018-03-12T12:22:22.830Z,5.03
2018-03-12T12:23:27.259Z,6.68
2018-03-12T12:24:31.702Z,4.85
2018-03-12T12:25:36.962Z,5.43
2018-03-12T12:26:41.410Z,5.03
2018-03-12T12:27:45.893Z,5.40
2018-03-12T12:28:50.336Z,7.07
2018-03-12T12:29:54.782Z,5.28
2018-03-12T12:30:59.990Z,6.35
2018-03-12T12:32:04.476Z,5.53
2018-03-12T12:33:08.937Z,6.00
2018-03-12T12:34:14.209Z,6.40
2018-03-12T12:35:18.833Z,6.03
2018-03-12T12:36:23.269Z,6.55
2018-03-12T12:37:27.751Z,6.20
2018-03-12T12:38:32.217Z,6.37
2018-03-12T12:39:37.429Z,6.45
2018-03-12T12:40:42.664Z,6.00
2018-03-12T12:41:47.906Z,7.43
2018-03-12T12:42:53.126Z,6.72
2018-03-12T12:43:57.599Z,5.75
2018-03-12T12:45:02.026Z,6.95
2018-03-12T12:46:07.236Z,6.25
2018-03-12T12:47:11.668Z,6.65
2018-03-12T12:48:16.107Z,6.97
2018-03-12T12:49:20.596Z,9.15
2018-03-12T12:50:25.064Z,6.30
2018-03-12T12:51:29.695Z,8.38
2018-03-12T12:52:34.147Z,7.70
2018-03-12T12:53:38.566Z,6.60
2018-03-12T12:54:43.034Z,6.30
2018-03-12T12:55:47.470Z,6.87
2018-03-12T12:56:51.915Z,6.68
2018-03-12T12:57:56.374Z,6.30
2018-03-12T12:59:00.802Z,7.15
2018-03-12T13:00:04.934Z,6.87
2018-03-12T13:01:09.050Z,7.57
2018-03-12T13:02:13.473Z,7.05
2018-03-12T13:03:17.930Z,6.95
2018-03-12T13:04:22.367Z,6.65
2018-03-12T13:05:27.018Z,6.55
2018-03-12T13:06:31.482Z,7.65
2018-03-12T13:07:36.924Z,6.93
2018-03-12T13:08:42.123Z,7.10
2018-03-12T13:09:46.578Z,7.00
2018-03-12T13:10:51.056Z,7.43
2018-03-12T13:11:55.499Z,7.18
2018-03-12T13:12:59.935Z,6.75
2018-03-12T13:14:04.433Z,7.12
2018-03-12T13:15:08.900Z,7.00
2018-03-12T13:16:14.160Z,6.37
2018-03-12T13:17:19.562Z,7.35
2018-03-12T13:18:23.994Z,7.20
2018-03-12T13:19:28.426Z,6.97
2018-03-12T13:20:32.881Z,8.02
2018-03-12T13:21:37.568Z,7.20
2018-03-12T13:22:42.036Z,7.68
2018-03-12T13:23:46.791Z,6.75
2018-03-12T13:24:51.264Z,6.43
2018-03-12T13:25:56.344Z,6.22
2018-03-12T13:27:00.825Z,7.80
2018-03-12T13:28:05.267Z,6.65
2018-03-12T13:29:09.697Z,7.00
2018-03-12T13:30:14.953Z,6.97
2018-03-12T13:31:19.408Z,7.12
2018-03-12T13:32:24.065Z,6.60
2018-03-12T13:33:29.278Z,7.50
2018-03-12T13:34:33.725Z,7.20
2018-03-12T13:35:38.926Z,6.90
2018-03-12T13:36:44.192Z,6.90
2018-03-12T13:37:48.655Z,8.40
2018-03-12T13:38:53.115Z,7.62
2018-03-12T13:39:57.574Z,8.20
2018-03-12T13:41:02.014Z,7.05
2018-03-12T13:42:07.222Z,7.00
2018-03-12T13:43:11.696Z,6.55
2018-03-12T13:44:16.342Z,7.15
2018-03-12T13:45:20.778Z,6.90
2018-03-12T13:46:25.988Z,8.05
2018-03-12T13:47:30.426Z,6.10
2018-03-12T13:48:35.678Z,7.30
2018-03-12T13:49:40.185Z,6.07
2018-03-12T13:50:44.842Z,7.62
2018-03-12T13:51:49.319Z,6.82
2018-03-12T13:52:53.779Z,7.95
2018-03-12T13:53:58.532Z,7.05
2018-03-12T13:55:03.125Z,6.30
2018-03-12T13:56:08.333Z,6.93
2018-03-12T13:57:12.769Z,7.05
2018-03-12T13:58:17.971Z,7.65
2018-03-12T13:59:22.433Z,7.80
2018-03-12T14:00:29.151Z,8.15
2018-03-12T14:01:33.398Z,8.10